createdAt,value
2023-01-22T00:02:12.645Z,61.61
2023-01-22T00:04:40.802Z,61.36
2023-01-22T00:07:08.923Z,61.21
2023-01-22T00:09:56.132Z,61.40
2023-01-22T00:12:24.157Z,61.34
2023-01-22T00:14:52.815Z,61.21
2023-01-22T00:17:26.845Z,61.12
2023-01-22T00:19:55.037Z,61.23
2023-01-22T00:22:42.019Z,61.29
2023-01-22T00:25:12.353Z,61.23
2023-01-22T00:27:41.897Z,61.30
2023-01-22T00:30:10.945Z,61.31
2023-01-22T00:32:39.070Z,61.20
2023-01-22T00:35:07.397Z,61.02
2023-01-22T00:37:35.881Z,61.07
2023-01-22T00:40:09.976Z,61.14
2023-01-22T00:42:39.737Z,61.29
2023-01-22T00:45:08.696Z,61.15
2023-01-22T00:47:36.921Z,61.19
2023-01-22T00:50:06.172Z,61.18
2023-01-22T00:52:35.050Z,61.23
2023-01-22T00:55:04.731Z,61.27
2023-01-22T00:57:33.350Z,61.25
2023-01-22T01:00:01.437Z,61.41
2023-01-22T01:02:31.380Z,61.34
2023-01-22T01:05:02.074Z,61.51
2023-01-22T01:07:30.152Z,61.39
2023-01-22T01:09:58.357Z,61.46
2023-01-22T01:12:26.991Z,61.52
2023-01-22T01:14:56.481Z,61.54
2023-01-22T01:17:24.826Z,61.73
2023-01-22T01:19:53.357Z,61.73
2023-01-22T01:22:21.482Z,61.66
2023-01-22T01:24:49.526Z,61.76
2023-01-22T01:27:17.967Z,61.88
2023-01-22T01:29:46.138Z,62.06
2023-01-22T01:32:14.194Z,62.13
2023-01-22T01:34:42.499Z,62.20
2023-01-22T01:37:12.421Z,62.40
2023-01-22T01:39:40.460Z,62.45
2023-01-22T01:42:09.468Z,62.38
2023-01-22T01:44:38.060Z,62.18
2023-01-22T01:47:22.518Z,62.22
2023-01-22T01:49:53.516Z,62.30
2023-01-22T01:52:21.661Z,62.28
2023-01-22T01:54:53.374Z,62.21
2023-01-22T01:57:31.629Z,62.26
2023-01-22T02:00:05.097Z,62.30
2023-01-22T02:02:41.811Z,62.23
2023-01-22T02:05:10.565Z,62.22
2023-01-22T02:07:38.755Z,62.13
2023-01-22T02:10:25.962Z,62.07
2023-01-22T02:13:19.247Z,62.09
2023-01-22T02:15:48.667Z,62.15
2023-01-22T02:18:16.905Z,62.23
2023-01-22T02:20:57.088Z,62.34
2023-01-22T02:23:28.459Z,62.34
2023-01-22T02:25:58.341Z,62.32
2023-01-22T02:28:27.041Z,62.14
2023-01-22T02:31:15.032Z,62.03
2023-01-22T02:34:02.934Z,61.86
2023-01-22T02:36:37.699Z,61.64
2023-01-22T02:39:07.098Z,61.63
2023-01-22T02:41:53.936Z,61.71
2023-01-22T02:44:22.658Z,61.71
2023-01-22T02:46:50.821Z,61.77
2023-01-22T02:49:37.997Z,61.83
2023-01-22T02:52:08.260Z,61.78
2023-01-22T02:54:36.752Z,61.68
2023-01-22T02:57:31.273Z,61.66
2023-01-22T02:59:59.393Z,61.59
2023-01-22T03:02:27.821Z,61.58
2023-01-22T03:05:03.750Z,61.66
2023-01-22T03:07:42.747Z,61.77
2023-01-22T03:10:13.955Z,61.80
2023-01-22T03:13:02.200Z,61.78
2023-01-22T03:15:49.597Z,61.86
2023-01-22T03:18:38.302Z,61.82
2023-01-22T03:21:20.349Z,61.84
2023-01-22T03:23:52.427Z,61.63
2023-01-22T03:26:22.453Z,61.77
2023-01-22T03:28:51.629Z,61.92
2023-01-22T03:31:39.374Z,61.98
2023-01-22T03:34:07.730Z,62.12
2023-01-22T03:36:35.937Z,62.03
2023-01-22T03:39:05.939Z,62.06
2023-01-22T03:41:34.411Z,62.18
2023-01-22T03:44:03.776Z,62.35
2023-01-22T03:46:35.758Z,62.41
2023-01-22T03:49:22.811Z,62.43
2023-01-22T03:51:53.798Z,62.60
2023-01-22T03:54:21.771Z,62.58
2023-01-22T03:56:50.122Z,62.49
2023-01-22T03:59:26.945Z,62.50
2023-01-22T04:02:13.683Z,62.24
2023-01-22T04:04:50.997Z,62.35
2023-01-22T04:07:19.439Z,62.38
2023-01-22T04:09:48.255Z,62.36
2023-01-22T04:12:16.732Z,62.19
2023-01-22T04:14:45.541Z,62.15
2023-01-22T04:17:13.770Z,62.27
2023-01-22T04:19:55.341Z,62.19
2023-01-22T04:22:40.419Z,62.16
2023-01-22T04:25:10.688Z,62.08
2023-01-22T04:27:39.079Z,62.08
2023-01-22T04:30:08.404Z,62.08
2023-01-22T04:32:37.264Z,62.17
2023-01-22T04:35:34.388Z,62.21
2023-01-22T04:38:10.568Z,62.40
2023-01-22T04:40:39.618Z,62.53
2023-01-22T04:43:08.604Z,62.79
2023-01-22T04:45:56.330Z,62.56
2023-01-22T04:48:29.883Z,62.97
2023-01-22T04:50:58.268Z,62.95
2023-01-22T04:53:29.434Z,62.88
2023-01-22T04:55:57.641Z,62.97
2023-01-22T04:58:27.293Z,62.88
2023-01-22T05:00:59.693Z,62.71
2023-01-22T05:03:28.522Z,62.91
2023-01-22T05:05:57.178Z,62.85
2023-01-22T05:08:25.497Z,62.90
2023-01-22T05:10:55.641Z,62.94
2023-01-22T05:13:30.204Z,62.88
2023-01-22T05:15:59.459Z,62.96
2023-01-22T05:18:27.811Z,62.98
2023-01-22T05:20:55.916Z,63.16
2023-01-22T05:23:27.362Z,63.24
2023-01-22T05:25:56.565Z,63.27
2023-01-22T05:28:36.905Z,63.30
2023-01-22T05:31:25.398Z,63.39
2023-01-22T05:34:05.500Z,63.53
2023-01-22T05:36:33.888Z,63.43
2023-01-22T05:39:07.996Z,63.27
2023-01-22T05:41:36.923Z,63.23
2023-01-22T05:44:05.540Z,63.24
2023-01-22T05:46:34.054Z,63.45
2023-01-22T05:49:45.997Z,63.55
2023-01-22T05:52:20.592Z,63.94
2023-01-22T05:54:49.280Z,63.72
2023-01-22T05:57:18.867Z,63.36
2023-01-22T05:59:46.897Z,63.45
2023-01-22T06:02:15.612Z,63.35
2023-01-22T06:04:45.331Z,63.16
2023-01-22T06:07:31.857Z,62.93
2023-01-22T06:10:00.498Z,62.72
2023-01-22T06:12:29.440Z,62.45
2023-01-22T06:14:57.729Z,62.37
2023-01-22T06:17:46.856Z,62.30
2023-01-22T06:20:16.324Z,62.32
2023-01-22T06:22:44.495Z,62.54
2023-01-22T06:25:12.731Z,62.50
2023-01-22T06:28:32.287Z,62.60
2023-01-22T06:31:20.062Z,62.73
2023-01-22T06:33:48.959Z,62.73
2023-01-22T06:36:17.361Z,62.63
2023-01-22T06:39:05.239Z,62.71
2023-01-22T06:41:42.797Z,62.81
2023-01-22T06:44:13.350Z,62.80
2023-01-22T06:46:41.405Z,62.72
2023-01-22T06:49:12.151Z,62.75
2023-01-22T06:51:42.172Z,62.62
2023-01-22T06:54:12.734Z,62.69
2023-01-22T06:56:59.957Z,62.57
2023-01-22T06:59:47.402Z,62.39
2023-01-22T07:02:17.819Z,62.32
2023-01-22T07:04:46.203Z,62.30
2023-01-22T07:07:14.935Z,62.14
2023-01-22T07:09:43.332Z,62.07
2023-01-22T07:12:11.436Z,62.08
2023-01-22T07:14:39.544Z,62.05
2023-01-22T07:17:26.512Z,61.98
2023-01-22T07:19:54.622Z,61.87
2023-01-22T07:22:22.719Z,61.87
2023-01-22T07:24:51.194Z,61.86
2023-01-22T07:27:19.215Z,61.89
2023-01-22T07:29:47.947Z,61.91
2023-01-22T07:32:21.271Z,62.00
2023-01-22T07:34:49.424Z,62.15
2023-01-22T07:37:17.774Z,62.04
2023-01-22T07:39:45.753Z,61.82
2023-01-22T07:42:14.273Z,61.72
2023-01-22T07:44:42.778Z,61.54
2023-01-22T07:47:10.912Z,61.52
2023-01-22T07:49:39.299Z,61.47
2023-01-22T07:52:25.879Z,61.41
2023-01-22T07:54:54.297Z,61.53
2023-01-22T07:57:22.321Z,61.79
2023-01-22T07:59:50.427Z,61.87
2023-01-22T08:02:18.989Z,61.66
2023-01-22T08:04:47.342Z,62.24
2023-01-22T08:07:19.550Z,62.35
2023-01-22T08:09:47.785Z,62.37
2023-01-22T08:12:37.478Z,62.62
2023-01-22T08:15:06.156Z,62.92
2023-01-22T08:17:34.243Z,63.02
2023-01-22T08:20:21.796Z,63.10
2023-01-22T08:22:49.774Z,63.51
2023-01-22T08:25:17.833Z,63.43
2023-01-22T08:27:46.514Z,62.92
2023-01-22T08:30:15.991Z,63.15
2023-01-22T08:32:46.030Z,63.11
2023-01-22T08:35:14.536Z,63.22
2023-01-22T08:37:45.766Z,63.10
2023-01-22T08:40:14.004Z,62.93
2023-01-22T08:42:43.572Z,62.74
2023-01-22T08:45:11.796Z,62.66
2023-01-22T08:47:39.908Z,62.56
2023-01-22T08:50:29.466Z,62.57
2023-01-22T08:52:58.011Z,62.63
2023-01-22T08:55:27.847Z,62.69
2023-01-22T08:57:57.568Z,62.80
2023-01-22T09:00:26.269Z,62.81
2023-01-22T09:02:59.946Z,62.73
2023-01-22T09:05:28.679Z,62.87
2023-01-22T09:07:56.750Z,63.06
2023-01-22T09:10:25.716Z,62.99
2023-01-22T09:12:54.175Z,63.00
2023-01-22T09:15:22.265Z,62.98
2023-01-22T09:18:09.304Z,63.23
2023-01-22T09:20:37.288Z,62.72
2023-01-22T09:23:07.995Z,62.80
2023-01-22T09:25:36.276Z,63.13
2023-01-22T09:28:07.283Z,63.43
2023-01-22T09:30:39.533Z,63.31
2023-01-22T09:33:07.843Z,63.23
2023-01-22T09:35:35.874Z,63.38
2023-01-22T09:38:06.032Z,63.65
2023-01-22T09:40:46.607Z,63.40
2023-01-22T09:43:37.421Z,63.34
2023-01-22T09:46:16.542Z,63.35
2023-01-22T09:48:48.375Z,63.33
2023-01-22T09:51:19.752Z,63.33
2023-01-22T09:53:55.466Z,63.53
2023-01-22T09:56:32.469Z,63.73
2023-01-22T09:59:03.657Z,63.48
2023-01-22T10:01:32.419Z,63.39
2023-01-22T10:04:05.568Z,63.29
2023-01-22T10:06:33.950Z,63.12
2023-01-22T10:09:08.254Z,63.11
2023-01-22T10:11:40.035Z,63.31
2023-01-22T10:14:12.732Z,63.30
2023-01-22T10:16:41.100Z,63.02
2023-01-22T10:19:21.536Z,62.92
2023-01-22T10:21:55.829Z,62.72
2023-01-22T10:24:24.134Z,62.46
2023-01-22T10:26:54.607Z,62.28
2023-01-22T10:29:31.139Z,62.24
2023-01-22T10:32:02.365Z,62.25
2023-01-22T10:34:35.254Z,62.26
2023-01-22T10:37:14.692Z,62.17
2023-01-22T10:39:45.538Z,62.25
2023-01-22T10:42:23.145Z,62.05
2023-01-22T10:59:50.336Z,61.26
2023-01-22T11:02:22.962Z,60.91
2023-01-22T11:04:52.190Z,62.59
2023-01-22T11:07:32.582Z,63.93
2023-01-22T11:10:31.740Z,62.85
2023-01-22T11:13:29.110Z,62.92
2023-01-22T11:15:57.596Z,63.17
2023-01-22T11:18:39.449Z,63.26
2023-01-22T11:21:18.414Z,63.26
2023-01-22T11:24:15.800Z,63.42
2023-01-22T11:26:59.546Z,63.37
2023-01-22T11:29:49.118Z,63.30
2023-01-22T11:32:46.123Z,63.39
2023-01-22T11:35:34.305Z,63.39
2023-01-22T11:38:44.561Z,63.44
2023-01-22T11:42:00.530Z,63.73
2023-01-22T11:45:09.859Z,63.64
2023-01-22T11:47:54.841Z,63.60
2023-01-22T11:50:52.240Z,63.45
2023-01-22T11:53:30.274Z,63.50
2023-01-22T11:56:17.027Z,63.73
2023-01-22T11:59:18.990Z,63.92
2023-01-22T12:02:13.381Z,64.17
2023-01-22T12:05:02.904Z,64.32
2023-01-22T12:07:57.533Z,64.34
2023-01-22T12:10:55.901Z,64.10
2023-01-22T12:13:47.404Z,64.06
2023-01-22T12:16:34.361Z,64.03
2023-01-22T12:19:27.046Z,63.82
2023-01-22T12:21:55.039Z,63.72
2023-01-22T12:25:02.735Z,63.82
2023-01-22T12:28:15.922Z,63.81
2023-01-22T12:30:58.373Z,63.83
2023-01-22T12:33:39.141Z,63.97
2023-01-22T12:36:10.507Z,63.98
2023-01-22T12:39:03.593Z,63.91
2023-01-22T12:41:58.761Z,63.93
2023-01-22T12:44:49.639Z,63.95
2023-01-22T12:47:40.840Z,64.10
2023-01-22T12:50:19.838Z,64.17
2023-01-22T12:53:03.285Z,64.45
2023-01-22T12:55:43.933Z,64.35
2023-01-22T12:58:23.740Z,64.51
2023-01-22T13:01:05.581Z,64.58
2023-01-22T13:03:35.696Z,64.51
2023-01-22T13:06:18.950Z,64.70
2023-01-22T13:08:47.249Z,64.67
2023-01-22T13:11:34.049Z,64.64
2023-01-22T13:14:28.254Z,64.53
2023-01-22T13:17:17.004Z,64.74
2023-01-22T13:19:48.131Z,64.89
2023-01-22T13:22:25.781Z,64.98
2023-01-22T13:24:57.026Z,64.85
2023-01-22T13:27:46.989Z,64.82
2023-01-22T13:30:27.697Z,64.77
2023-01-22T13:33:14.548Z,64.74
2023-01-22T13:36:15.831Z,64.70
2023-01-22T13:38:55.520Z,64.77
2023-01-22T13:41:37.007Z,64.99
2023-01-22T13:44:07.577Z,65.31
2023-01-22T13:46:38.909Z,65.16
2023-01-22T13:49:20.156Z,65.27
2023-01-22T13:52:14.055Z,65.28
2023-01-22T13:54:52.848Z,65.27
2023-01-22T13:57:22.609Z,65.25
2023-01-22T13:59:59.519Z,65.12
2023-01-22T14:02:31.184Z,65.09
2023-01-22T14:04:59.859Z,64.94
2023-01-22T14:07:34.843Z,64.96
2023-01-22T14:10:12.477Z,65.04
2023-01-22T14:12:41.063Z,65.14
2023-01-22T14:15:20.933Z,65.28
2023-01-22T14:17:50.621Z,65.22
2023-01-22T14:20:42.343Z,65.27
2023-01-22T14:23:10.900Z,65.36
2023-01-22T14:25:45.586Z,65.21
2023-01-22T14:28:14.104Z,65.19
2023-01-22T14:30:42.645Z,65.16
2023-01-22T14:33:20.522Z,64.90
2023-01-22T14:36:13.036Z,64.86
2023-01-22T14:38:41.315Z,64.78
2023-01-22T14:41:09.500Z,64.43
2023-01-22T14:43:37.705Z,64.44
2023-01-22T14:46:24.407Z,64.54
2023-01-22T14:48:52.460Z,64.68
2023-01-22T14:51:20.536Z,64.83
2023-01-22T14:53:48.930Z,64.96
2023-01-22T14:56:16.929Z,65.18
2023-01-22T14:58:45.017Z,65.20
2023-01-22T15:01:18.761Z,63.40
2023-01-22T15:03:47.131Z,62.96
2023-01-22T15:06:15.351Z,63.30
2023-01-22T15:08:43.526Z,63.64
2023-01-22T15:11:12.060Z,63.51
2023-01-22T15:13:40.236Z,63.45
2023-01-22T15:16:11.316Z,63.06
2023-01-22T15:18:39.919Z,63.14
2023-01-22T15:21:08.217Z,63.00
2023-01-22T15:23:36.899Z,63.15
2023-01-22T15:26:10.393Z,63.11
2023-01-22T15:28:39.012Z,62.95
2023-01-22T15:31:10.024Z,62.88
2023-01-22T15:33:38.480Z,62.63
2023-01-22T15:36:07.557Z,62.36
2023-01-22T15:38:54.311Z,62.42
2023-01-22T15:41:25.151Z,62.41
2023-01-22T15:43:55.465Z,62.32
2023-01-22T15:46:25.585Z,62.25
2023-01-22T15:48:54.559Z,62.39
2023-01-22T15:51:23.136Z,62.12
2023-01-22T15:53:54.196Z,62.10
2023-01-22T15:56:24.767Z,62.18
2023-01-22T15:58:53.612Z,62.10
2023-01-22T16:01:22.766Z,61.83
2023-01-22T16:03:51.306Z,61.76
2023-01-22T16:06:24.052Z,61.77
2023-01-22T16:08:54.274Z,61.84
2023-01-22T16:11:22.661Z,61.87
2023-01-22T16:13:51.355Z,61.81
2023-01-22T16:16:24.121Z,61.59
2023-01-22T16:18:55.350Z,61.34
2023-01-22T16:21:23.502Z,61.25
2023-01-22T16:23:57.099Z,61.27
2023-01-22T16:26:28.661Z,61.34
2023-01-22T16:28:58.425Z,61.30
2023-01-22T16:31:29.322Z,61.43
2023-01-22T16:34:00.150Z,61.43
2023-01-22T16:36:32.971Z,62.34
2023-01-22T16:39:01.338Z,61.98
2023-01-22T16:41:32.795Z,58.43
2023-01-22T16:44:10.039Z,58.10
2023-01-22T16:46:41.209Z,59.17
2023-01-22T16:49:26.760Z,60.55
2023-01-22T16:51:57.394Z,60.91
2023-01-22T16:54:31.827Z,63.44
2023-01-22T16:57:03.841Z,64.36
2023-01-22T16:59:33.757Z,63.83
2023-01-22T17:02:03.884Z,63.24
2023-01-22T17:04:32.447Z,63.07
2023-01-22T17:07:00.907Z,62.63
2023-01-22T17:09:32.421Z,62.49
2023-01-22T17:12:19.929Z,61.81
2023-01-22T17:14:52.946Z,61.20
2023-01-22T17:17:45.079Z,60.85
2023-01-22T17:20:31.732Z,60.85
2023-01-22T17:23:00.236Z,60.52
2023-01-22T17:25:28.597Z,60.02
2023-01-22T17:28:16.390Z,59.17
2023-01-22T17:30:44.783Z,58.02
2023-01-22T17:33:34.049Z,59.01
2023-01-22T17:36:04.030Z,60.52
2023-01-22T17:38:36.411Z,60.79
2023-01-22T17:41:25.443Z,60.59
2023-01-22T17:43:56.273Z,61.10
2023-01-22T17:46:29.278Z,62.10
2023-01-22T17:48:58.842Z,62.69
2023-01-22T17:51:46.379Z,63.92
2023-01-22T17:54:14.473Z,62.75
2023-01-22T17:56:46.075Z,62.18
2023-01-22T17:59:15.357Z,61.37
2023-01-22T18:01:45.211Z,61.08
2023-01-22T18:04:35.064Z,59.81
2023-01-22T18:07:05.205Z,58.99
2023-01-22T18:09:33.430Z,58.99
2023-01-22T18:12:03.139Z,59.23
2023-01-22T18:14:34.189Z,59.86
2023-01-22T18:17:02.809Z,59.77
2023-01-22T18:19:31.497Z,60.13
2023-01-22T18:22:00.076Z,59.72
2023-01-22T18:24:31.239Z,60.27
2023-01-22T18:26:59.639Z,60.54
2023-01-22T18:29:28.337Z,60.62
2023-01-22T18:31:57.130Z,61.09
2023-01-22T18:34:26.149Z,61.90
2023-01-22T18:36:54.279Z,63.82
2023-01-22T18:39:43.248Z,64.42
2023-01-22T18:42:11.500Z,63.38
2023-01-22T18:44:39.556Z,62.10
2023-01-22T18:47:15.565Z,61.43
2023-01-22T18:49:51.593Z,61.34
2023-01-22T18:52:40.776Z,60.78
2023-01-22T18:55:09.681Z,60.52
2023-01-22T18:58:27.616Z,60.59
2023-01-22T19:00:59.378Z,59.29
2023-01-22T19:03:28.588Z,59.28
2023-01-22T19:05:57.119Z,59.25
2023-01-22T19:08:26.250Z,59.12
2023-01-22T19:10:59.248Z,59.31
2023-01-22T19:13:27.703Z,59.49
2023-01-22T19:15:55.829Z,60.40
2023-01-22T19:18:24.082Z,62.82
2023-01-22T19:21:19.409Z,63.41
2023-01-22T19:24:10.176Z,62.66
2023-01-22T19:26:39.249Z,61.97
2023-01-22T19:29:11.455Z,61.31
2023-01-22T19:31:43.497Z,60.95
2023-01-22T19:34:14.010Z,60.46
2023-01-22T19:36:42.403Z,60.09
2023-01-22T19:39:12.714Z,59.49
2023-01-22T19:42:05.234Z,59.80
2023-01-22T19:44:34.575Z,60.30
2023-01-22T19:47:03.792Z,60.36
2023-01-22T19:49:32.859Z,60.89
2023-01-22T19:52:00.940Z,62.75
2023-01-22T19:54:29.397Z,62.90
2023-01-22T19:57:02.636Z,62.42
2023-01-22T19:59:31.528Z,61.53
2023-01-22T20:02:20.917Z,61.20
2023-01-22T20:04:51.346Z,59.64
2023-01-22T20:07:20.600Z,58.09
2023-01-22T20:09:48.761Z,59.19
2023-01-22T20:12:17.560Z,59.90
2023-01-22T20:15:04.837Z,60.13
2023-01-22T20:17:34.104Z,60.38
2023-01-22T20:20:02.463Z,60.66
2023-01-22T20:22:31.078Z,61.85
2023-01-22T20:24:59.200Z,61.68
2023-01-22T20:27:27.442Z,62.90
2023-01-22T20:29:56.364Z,63.60
2023-01-22T20:32:26.321Z,62.75
2023-01-22T20:34:54.371Z,61.44
2023-01-22T20:37:24.451Z,60.79
2023-01-22T20:39:53.577Z,60.09
2023-01-22T20:42:21.616Z,58.77
2023-01-22T20:45:09.292Z,57.45
2023-01-22T20:47:41.635Z,59.29
2023-01-22T20:50:36.443Z,59.91
2023-01-22T20:53:06.448Z,59.88
2023-01-22T20:55:34.826Z,59.64
2023-01-22T20:58:02.843Z,60.04
2023-01-22T21:00:31.116Z,60.32
2023-01-22T21:03:04.620Z,61.12
2023-01-22T21:05:33.045Z,62.39
2023-01-22T21:08:02.030Z,62.94
2023-01-22T21:10:59.304Z,62.27
2023-01-22T21:13:27.676Z,61.76
2023-01-22T21:15:56.208Z,61.28
2023-01-22T21:18:24.859Z,60.74
2023-01-22T21:20:52.941Z,60.28
2023-01-22T21:23:21.046Z,59.21
2023-01-22T21:25:49.467Z,58.72
2023-01-22T21:28:37.575Z,58.24
2023-01-22T21:31:14.558Z,58.31
2023-01-22T21:33:49.011Z,59.95
2023-01-22T21:36:18.511Z,60.06
2023-01-22T21:38:47.875Z,59.95
2023-01-22T21:41:17.724Z,61.36
2023-01-22T21:44:06.094Z,61.98
2023-01-22T21:46:41.944Z,62.66
2023-01-22T21:49:20.319Z,63.00
2023-01-22T21:51:57.416Z,62.53
2023-01-22T21:54:33.865Z,62.01
2023-01-22T21:57:03.312Z,61.45
2023-01-22T21:59:50.101Z,60.98
2023-01-22T22:02:24.639Z,59.56
2023-01-22T22:04:53.091Z,58.65
2023-01-22T22:07:21.189Z,58.36
2023-01-22T22:09:49.356Z,58.29
2023-01-22T22:12:17.673Z,58.97
2023-01-22T22:14:45.718Z,60.68
2023-01-22T22:17:32.923Z,60.74
2023-01-22T22:20:20.065Z,60.29
2023-01-22T22:22:48.519Z,61.81
2023-01-22T22:25:16.573Z,62.55
2023-01-22T22:27:44.568Z,62.81
2023-01-22T22:30:13.543Z,61.66
2023-01-22T22:32:41.546Z,61.66
2023-01-22T22:35:09.992Z,61.42
2023-01-22T22:37:38.687Z,60.23
2023-01-22T22:40:08.194Z,59.14
2023-01-22T22:42:36.251Z,58.85
2023-01-22T22:45:05.207Z,59.11
2023-01-22T22:47:51.864Z,58.92
2023-01-22T22:50:20.317Z,59.31
2023-01-22T22:52:48.790Z,59.33
2023-01-22T22:55:16.772Z,59.73
2023-01-22T22:57:44.962Z,61.19
2023-01-22T23:00:13.319Z,60.74
2023-01-22T23:02:42.685Z,61.42
2023-01-22T23:05:11.041Z,61.31
2023-01-22T23:07:39.177Z,62.44
2023-01-22T23:10:07.877Z,63.16
2023-01-22T23:12:36.055Z,63.03
2023-01-22T23:15:04.703Z,62.31
2023-01-22T23:17:32.995Z,61.31
2023-01-22T23:20:20.819Z,61.09
2023-01-22T23:22:52.479Z,60.42
2023-01-22T23:25:20.712Z,59.81
2023-01-22T23:27:53.481Z,58.74
2023-01-22T23:30:21.866Z,58.58
2023-01-22T23:33:08.908Z,60.19
2023-01-22T23:35:37.895Z,60.25
2023-01-22T23:38:24.527Z,60.91
2023-01-22T23:41:05.304Z,61.31
2023-01-22T23:43:33.705Z,62.31
2023-01-22T23:46:07.045Z,63.03
2023-01-22T23:48:35.500Z,62.41
2023-01-22T23:51:04.464Z,61.41
2023-01-22T23:53:36.650Z,60.22
2023-01-22T23:56:05.034Z,59.31
2023-01-22T23:58:34.591Z,58.43
